createdAt,value
2018-03-25T00:02:01.774Z,80.90
2018-03-25T00:04:29.946Z,81.50
2018-03-25T00:06:58.121Z,82.40
2018-03-25T00:09:26.303Z,83.20
2018-03-25T00:11:54.521Z,84.40
2018-03-25T00:14:22.780Z,84.30
2018-03-25T00:16:56.639Z,84.40
2018-03-25T00:19:25.244Z,84.30
2018-03-25T00:21:55.431Z,85.10
2018-03-25T00:24:24.144Z,85.10
2018-03-25T00:26:53.171Z,81.70
2018-03-25T00:29:21.429Z,80.00
2018-03-25T00:31:49.598Z,80.90
2018-03-25T00:34:18.432Z,82.90
2018-03-25T00:36:47.374Z,82.30
2018-03-25T00:39:15.557Z,82.30
2018-03-25T00:41:44.725Z,81.90
2018-03-25T00:44:12.957Z,81.80
2018-03-25T00:46:41.180Z,81.00
2018-03-25T00:49:09.391Z,80.60
2018-03-25T00:51:37.624Z,79.70
2018-03-25T00:54:05.794Z,82.80
2018-03-25T00:56:34.028Z,86.30
2018-03-25T00:59:03.277Z,86.90
2018-03-25T01:01:31.514Z,87.50
2018-03-25T01:04:00.041Z,87.00
2018-03-25T01:06:29.877Z,89.10
2018-03-25T01:08:58.299Z,89.00
2018-03-25T01:11:26.461Z,88.30
2018-03-25T01:13:54.670Z,88.60
2018-03-25T01:16:22.850Z,87.00
2018-03-25T01:18:51.028Z,85.70
2018-03-25T01:21:19.207Z,86.50
2018-03-25T01:23:47.372Z,86.50
2018-03-25T01:26:15.542Z,83.10
2018-03-25T01:28:43.806Z,81.90
2018-03-25T01:31:12.750Z,84.00
2018-03-25T01:33:40.935Z,83.90
2018-03-25T01:36:09.106Z,84.70
2018-03-25T01:38:37.292Z,87.20
2018-03-25T01:41:05.701Z,88.70
2018-03-25T01:43:38.098Z,89.70
2018-03-25T01:46:06.394Z,89.70
2018-03-25T01:48:34.573Z,90.00
2018-03-25T01:51:02.734Z,90.60
2018-03-25T01:53:31.093Z,89.00
2018-03-25T01:56:00.112Z,87.20
2018-03-25T01:58:28.286Z,86.80
2018-03-25T02:00:56.457Z,86.60
2018-03-25T02:03:25.254Z,86.90
2018-03-25T02:05:53.419Z,88.30
2018-03-25T02:08:21.622Z,86.70
2018-03-25T02:10:50.787Z,87.00
2018-03-25T02:13:19.042Z,87.80
2018-03-25T02:15:48.425Z,88.30
2018-03-25T02:18:16.638Z,88.30
2018-03-25T02:20:44.817Z,88.40
2018-03-25T02:23:12.995Z,88.30
2018-03-25T02:25:41.166Z,87.90
2018-03-25T02:28:09.345Z,86.80
2018-03-25T02:30:37.542Z,86.50
2018-03-25T02:33:05.780Z,86.40
2018-03-25T02:35:33.963Z,85.60
2018-03-25T02:38:02.152Z,86.00
2018-03-25T02:40:30.360Z,85.10
2018-03-25T02:42:58.577Z,85.30
2018-03-25T02:45:26.972Z,86.80
2018-03-25T02:47:55.176Z,86.30
2018-03-25T02:50:23.344Z,87.00
2018-03-25T02:52:56.200Z,86.50
2018-03-25T02:55:24.520Z,85.60
2018-03-25T02:57:52.735Z,84.90
2018-03-25T03:00:21.158Z,85.00
2018-03-25T03:02:53.173Z,85.90
2018-03-25T03:05:21.478Z,86.10
2018-03-25T03:07:49.643Z,86.50
2018-03-25T03:10:17.817Z,87.60
2018-03-25T03:12:46.077Z,87.30
2018-03-25T03:15:14.256Z,88.00
2018-03-25T03:17:42.420Z,88.00
2018-03-25T03:20:10.599Z,89.20
2018-03-25T03:22:44.576Z,87.70
2018-03-25T03:25:13.276Z,86.10
2018-03-25T03:27:42.522Z,86.30
2018-03-25T03:30:10.705Z,86.30
2018-03-25T03:32:38.912Z,85.20
2018-03-25T03:35:07.120Z,86.00
2018-03-25T03:37:35.313Z,87.40
2018-03-25T03:40:05.290Z,88.00
2018-03-25T03:42:33.613Z,87.70
2018-03-25T03:45:01.802Z,88.50
2018-03-25T03:47:29.997Z,88.80
2018-03-25T03:49:58.164Z,90.10
2018-03-25T03:52:26.335Z,89.60
2018-03-25T03:54:54.536Z,89.60
2018-03-25T03:57:22.714Z,90.10
2018-03-25T03:59:51.354Z,88.30
2018-03-25T04:02:19.726Z,89.80
2018-03-25T04:04:47.893Z,90.00
2018-03-25T04:07:16.069Z,89.70
2018-03-25T04:09:44.305Z,90.50
2018-03-25T04:12:12.516Z,89.10
2018-03-25T04:14:40.680Z,86.00
2018-03-25T04:17:09.106Z,85.80
2018-03-25T04:19:37.276Z,84.40
2018-03-25T04:22:05.448Z,84.90
2018-03-25T04:24:35.005Z,86.50
2018-03-25T04:27:03.179Z,85.60
2018-03-25T04:29:31.364Z,85.40
2018-03-25T04:31:59.541Z,84.90
2018-03-25T04:34:27.699Z,85.40
2018-03-25T04:36:55.854Z,86.20
2018-03-25T04:39:24.020Z,85.40
2018-03-25T04:41:52.184Z,84.50
2018-03-25T04:44:20.352Z,85.90
2018-03-25T04:46:49.698Z,87.50
2018-03-25T04:49:17.946Z,86.60
2018-03-25T04:51:46.111Z,87.20
2018-03-25T04:54:15.197Z,87.70
2018-03-25T04:56:43.372Z,87.60
2018-03-25T04:59:11.555Z,86.60
2018-03-25T05:01:39.766Z,87.50
2018-03-25T05:04:07.922Z,87.70
2018-03-25T05:06:37.674Z,87.80
2018-03-25T05:09:05.850Z,87.80
2018-03-25T05:11:34.033Z,87.90
2018-03-25T05:14:02.252Z,85.50
2018-03-25T05:16:31.112Z,83.70
2018-03-25T05:18:59.284Z,84.00
2018-03-25T05:21:27.453Z,83.40
2018-03-25T05:23:56.215Z,84.00
2018-03-25T05:26:25.204Z,83.80
2018-03-25T05:28:54.074Z,85.30
2018-03-25T05:31:23.243Z,86.40
2018-03-25T05:33:56.688Z,86.40
2018-03-25T05:36:24.846Z,85.70
2018-03-25T05:38:56.509Z,82.10
2018-03-25T05:41:24.687Z,83.10
2018-03-25T05:43:53.887Z,83.20
2018-03-25T05:46:22.048Z,82.50
2018-03-25T05:48:51.077Z,82.00
2018-03-25T05:51:19.245Z,81.30
2018-03-25T05:53:47.419Z,81.30
2018-03-25T05:56:15.611Z,80.60
2018-03-25T05:58:43.810Z,79.40
2018-03-25T06:01:12.071Z,77.50
2018-03-25T06:03:41.151Z,75.50
2018-03-25T06:06:09.340Z,75.50
2018-03-25T06:08:37.984Z,74.80
2018-03-25T06:11:06.162Z,74.60
2018-03-25T06:13:34.433Z,74.70
2018-03-25T06:16:02.665Z,76.60
2018-03-25T06:18:30.793Z,76.80
2018-03-25T06:20:58.983Z,75.70
2018-03-25T06:23:32.365Z,76.10
2018-03-25T06:26:04.204Z,74.90
2018-03-25T06:28:32.368Z,74.30
2018-03-25T06:31:05.229Z,74.10
2018-03-25T06:33:38.214Z,72.80
2018-03-25T06:36:07.427Z,72.90
2018-03-25T06:38:36.379Z,68.80
2018-03-25T06:41:06.389Z,68.10
2018-03-25T06:43:34.658Z,68.50
2018-03-25T06:46:02.831Z,70.00
2018-03-25T06:48:31.987Z,69.50
2018-03-25T06:51:00.533Z,70.00
2018-03-25T06:53:28.913Z,70.10
2018-03-25T06:55:57.864Z,69.70
2018-03-25T06:58:26.071Z,68.40
2018-03-25T07:00:54.266Z,68.70
2018-03-25T07:03:22.499Z,68.70
2018-03-25T07:05:50.700Z,68.40
2018-03-25T07:08:18.886Z,68.10
2018-03-25T07:10:47.132Z,67.00
2018-03-25T07:13:16.444Z,66.90
2018-03-25T07:15:44.634Z,66.50
2018-03-25T07:18:12.808Z,66.20
2018-03-25T07:20:41.012Z,67.30
2018-03-25T07:23:13.207Z,67.40
2018-03-25T07:25:43.375Z,66.00
2018-03-25T07:28:11.548Z,66.00
2018-03-25T07:30:39.715Z,66.30
2018-03-25T07:33:07.955Z,65.60
2018-03-25T07:35:36.133Z,65.60
2018-03-25T07:38:04.342Z,65.20
2018-03-25T07:40:32.528Z,64.30
2018-03-25T07:43:00.698Z,64.10
2018-03-25T07:45:28.862Z,63.10
2018-03-25T07:47:57.044Z,62.80
2018-03-25T07:50:25.197Z,62.20
2018-03-25T07:52:54.379Z,61.80
2018-03-25T07:55:22.564Z,59.30
2018-03-25T07:57:50.731Z,59.40
2018-03-25T08:00:18.918Z,58.00
2018-03-25T08:02:48.123Z,55.00
2018-03-25T08:05:16.354Z,52.00
2018-03-25T08:07:45.359Z,50.40
2018-03-25T08:10:13.598Z,50.50
2018-03-25T08:12:42.626Z,47.70
2018-03-25T08:15:10.835Z,47.70
2018-03-25T08:17:40.211Z,45.80
2018-03-25T08:20:08.369Z,47.70
2018-03-25T08:22:43.636Z,46.30
2018-03-25T08:25:15.716Z,46.30
2018-03-25T08:27:44.621Z,46.10
2018-03-25T08:30:17.634Z,45.60
2018-03-25T08:35:35.447Z,43.30
2018-03-25T08:38:03.785Z,40.80
2018-03-25T08:40:31.963Z,42.40
2018-03-25T08:43:05.000Z,40.90
2018-03-25T08:45:33.173Z,41.10
2018-03-25T08:48:05.391Z,41.70
2018-03-25T08:50:33.562Z,39.90
2018-03-25T08:53:01.765Z,39.90
2018-03-25T08:55:29.940Z,40.40
2018-03-25T08:57:59.088Z,41.10
2018-03-25T09:00:28.066Z,39.40
2018-03-25T09:02:56.321Z,39.40
2018-03-25T09:05:24.529Z,39.80
2018-03-25T09:07:53.530Z,39.00
2018-03-25T09:10:22.059Z,39.00
2018-03-25T09:12:53.544Z,39.30
2018-03-25T09:15:22.287Z,37.40
2018-03-25T09:17:51.559Z,37.10
2018-03-25T09:20:21.183Z,37.10
2018-03-25T09:22:49.462Z,36.60
2018-03-25T09:25:17.869Z,36.70
2018-03-25T09:27:46.055Z,36.60
2018-03-25T09:30:14.278Z,35.60
2018-03-25T09:32:42.555Z,35.80
2018-03-25T09:35:10.734Z,35.50
2018-03-25T09:37:39.776Z,35.90
2018-03-25T09:40:07.945Z,35.40
2018-03-25T09:42:36.948Z,35.40
2018-03-25T09:45:05.090Z,34.10
2018-03-25T09:47:33.322Z,33.10
2018-03-25T09:50:02.817Z,33.20
2018-03-25T09:52:31.909Z,32.40
2018-03-25T09:55:00.697Z,32.30
2018-03-25T09:57:28.954Z,32.90
2018-03-25T09:59:57.113Z,32.80
2018-03-25T10:02:36.004Z,33.80
2018-03-25T10:05:04.179Z,32.80
2018-03-25T10:07:33.282Z,33.50
2018-03-25T10:10:01.450Z,33.60
2018-03-25T10:12:32.088Z,31.60
2018-03-25T10:15:00.271Z,31.70
2018-03-25T10:17:28.534Z,31.10
2018-03-25T10:19:56.973Z,31.50
2018-03-25T10:22:26.203Z,30.80
2018-03-25T10:24:55.207Z,30.00
2018-03-25T10:27:23.414Z,30.00
2018-03-25T10:29:51.578Z,29.80
2018-03-25T10:32:20.797Z,28.60
2018-03-25T10:34:49.003Z,27.80
2018-03-25T10:37:17.178Z,27.60
2018-03-25T10:39:46.126Z,27.50
2018-03-25T10:42:14.430Z,27.50
2018-03-25T10:44:42.595Z,24.80
2018-03-25T10:47:10.776Z,25.10
2018-03-25T10:49:38.974Z,24.40
2018-03-25T10:52:07.294Z,24.50
2018-03-25T10:54:35.529Z,23.70
2018-03-25T10:57:04.464Z,23.00
2018-03-25T10:59:32.688Z,23.00
2018-03-25T11:02:02.678Z,22.20
2018-03-25T11:04:30.854Z,22.20
2018-03-25T11:06:59.034Z,20.90
2018-03-25T11:09:27.269Z,21.30
2018-03-25T11:11:55.592Z,21.60
2018-03-25T11:14:23.722Z,21.40
2018-03-25T11:16:51.892Z,21.00
2018-03-25T11:19:20.072Z,21.00
2018-03-25T11:21:48.325Z,20.90
2018-03-25T11:24:16.521Z,21.60
2018-03-25T11:26:44.701Z,20.90
2018-03-25T11:29:12.881Z,21.60
2018-03-25T11:31:42.240Z,21.70
2018-03-25T11:34:11.276Z,21.80
2018-03-25T11:36:45.306Z,22.40
2018-03-25T11:39:13.484Z,21.90
2018-03-25T11:41:41.659Z,21.80
2018-03-25T11:44:09.823Z,21.70
2018-03-25T11:46:38.039Z,21.50
2018-03-25T11:49:07.069Z,20.10
2018-03-25T11:51:35.333Z,20.10
2018-03-25T11:54:03.521Z,19.90
2018-03-25T11:56:31.682Z,19.90
2018-03-25T11:58:59.859Z,19.50
2018-03-25T12:01:30.294Z,20.00
2018-03-25T12:03:58.466Z,19.20
2018-03-25T12:06:27.527Z,19.60
2018-03-25T12:08:55.720Z,18.70
2018-03-25T12:11:23.898Z,18.00
2018-03-25T12:13:52.432Z,18.10
2018-03-25T12:16:20.708Z,17.40
2018-03-25T12:18:48.936Z,17.70
2018-03-25T12:21:17.114Z,18.10
2018-03-25T12:23:45.382Z,18.30
2018-03-25T12:26:13.555Z,17.80
2018-03-25T12:28:41.726Z,18.00
2018-03-25T12:31:09.897Z,17.10
2018-03-25T12:33:38.135Z,17.50
2018-03-25T12:36:06.337Z,17.70
2018-03-25T12:38:34.524Z,17.30
2018-03-25T12:41:02.907Z,17.60
2018-03-25T12:43:31.205Z,16.90
2018-03-25T12:46:00.342Z,17.20
2018-03-25T12:48:28.598Z,16.50
2018-03-25T12:50:57.611Z,16.00
2018-03-25T12:53:25.952Z,16.60
2018-03-25T12:56:24.824Z,15.60
2018-03-25T12:58:54.762Z,15.80
2018-03-25T13:01:22.925Z,16.20
2018-03-25T13:03:51.195Z,16.10
2018-03-25T13:06:19.358Z,16.30
2018-03-25T13:08:47.542Z,16.20
2018-03-25T13:11:16.319Z,17.40
2018-03-25T13:13:44.494Z,18.30
2018-03-25T13:16:12.655Z,18.80
2018-03-25T13:18:41.854Z,19.00
2018-03-25T13:21:10.326Z,17.80
2018-03-25T13:23:42.940Z,18.20
2018-03-25T13:26:11.231Z,18.30
2018-03-25T13:28:39.389Z,17.70
2018-03-25T13:31:07.582Z,17.70
2018-03-25T13:33:35.878Z,18.00
2018-03-25T13:36:04.894Z,18.10
2018-03-25T13:38:33.058Z,18.00
2018-03-25T13:41:02.118Z,18.10
2018-03-25T13:43:31.138Z,18.60
2018-03-25T13:46:00.255Z,18.40
2018-03-25T13:48:28.422Z,19.40
2018-03-25T13:50:57.152Z,18.70
2018-03-25T13:53:26.253Z,18.60
2018-03-25T13:55:54.424Z,18.50
2018-03-25T13:58:22.689Z,18.80
2018-03-25T14:00:50.896Z,18.70
2018-03-25T14:03:29.239Z,18.50
2018-03-25T14:05:58.293Z,17.70
2018-03-25T14:08:30.562Z,16.70
2018-03-25T14:10:58.734Z,15.50
2018-03-25T14:13:28.522Z,15.20
2018-03-25T14:15:57.305Z,15.10
2018-03-25T14:18:26.179Z,13.70
2018-03-25T14:21:01.640Z,13.90
2018-03-25T14:23:34.290Z,11.60
2018-03-25T14:26:03.301Z,11.50
2018-03-25T14:28:32.238Z,10.20
2018-03-25T14:31:01.303Z,10.20
2018-03-25T14:33:32.615Z,10.00
2018-03-25T14:36:03.017Z,10.20
2018-03-25T14:38:31.739Z,10.90
2018-03-25T14:41:00.433Z,11.60
2018-03-25T14:43:29.558Z,12.90
2018-03-25T14:48:57.682Z,12.80
2018-03-25T14:51:27.563Z,12.90
2018-03-25T14:53:56.663Z,13.20
2018-03-25T14:56:27.172Z,12.70
2018-03-25T14:58:55.381Z,12.50
2018-03-25T15:01:23.882Z,12.60
2018-03-25T15:03:52.050Z,12.80
2018-03-25T15:06:23.003Z,13.40
2018-03-25T15:08:51.993Z,12.70
2018-03-25T15:11:20.168Z,12.50
2018-03-25T15:13:55.469Z,11.90
2018-03-25T15:16:24.875Z,11.60
2018-03-25T15:21:35.936Z,10.30
2018-03-25T15:24:04.160Z,10.20
2018-03-25T15:26:36.063Z,10.60
2018-03-25T15:29:09.206Z,9.80
2018-03-25T15:34:30.337Z,9.10
2018-03-25T15:37:01.054Z,8.90
2018-03-25T15:39:32.912Z,8.80
2018-03-25T15:42:05.078Z,9.20
2018-03-25T15:44:35.005Z,8.80
2018-03-25T15:47:03.559Z,9.80
2018-03-25T15:49:33.373Z,9.70
2018-03-25T15:52:02.541Z,9.80
2018-03-25T15:54:30.797Z,10.80
2018-03-25T15:57:01.128Z,11.10
2018-03-25T15:59:30.061Z,10.70
2018-03-25T16:02:00.040Z,12.20
2018-03-25T16:04:28.231Z,12.60
2018-03-25T16:06:56.854Z,12.90
2018-03-25T16:09:25.994Z,13.60
2018-03-25T16:11:55.217Z,14.60
2018-03-25T16:14:23.674Z,15.00
2018-03-25T16:16:54.229Z,15.20
2018-03-25T16:19:23.166Z,16.40
2018-03-25T16:21:55.812Z,16.40
2018-03-25T16:24:24.025Z,17.00
2018-03-25T16:26:52.866Z,17.80
2018-03-25T16:29:22.619Z,18.00
2018-03-25T16:31:50.821Z,17.90
2018-03-25T16:34:19.019Z,18.40
2018-03-25T16:36:48.130Z,18.70
2018-03-25T16:39:21.678Z,19.30
2018-03-25T16:41:50.740Z,19.30
2018-03-25T16:44:18.961Z,20.30
2018-03-25T16:46:48.482Z,21.00
2018-03-25T16:49:16.654Z,21.40
2018-03-25T16:51:45.095Z,21.60
2018-03-25T16:54:14.063Z,21.60
2018-03-25T16:56:42.247Z,21.50
2018-03-25T16:59:12.092Z,21.40
2018-03-25T17:01:41.264Z,21.40
2018-03-25T17:04:09.457Z,22.00
2018-03-25T17:06:38.969Z,22.60
2018-03-25T17:09:11.502Z,23.20
2018-03-25T17:11:39.842Z,23.20
2018-03-25T17:14:20.137Z,23.60
2018-03-25T17:16:50.252Z,23.10
2018-03-25T17:19:19.914Z,23.50
2018-03-25T17:21:48.092Z,24.60
2018-03-25T17:24:17.415Z,24.60
2018-03-25T17:26:45.608Z,24.00
2018-03-25T17:29:14.178Z,24.20
2018-03-25T17:31:52.444Z,25.00
2018-03-25T17:34:22.644Z,24.80
2018-03-25T17:36:51.244Z,24.70
2018-03-25T17:39:19.414Z,24.80
2018-03-25T17:41:48.546Z,25.00
2018-03-25T17:44:17.674Z,25.50
2018-03-25T17:46:50.879Z,25.30
2018-03-25T17:49:19.126Z,25.80
2018-03-25T17:51:47.320Z,26.50
2018-03-25T17:54:17.005Z,28.20
2018-03-25T17:56:45.956Z,28.20
2018-03-25T17:59:18.265Z,29.10
2018-03-25T18:01:47.628Z,29.80
2018-03-25T18:04:24.147Z,31.40
2018-03-25T18:07:17.369Z,33.80
2018-03-25T18:12:56.932Z,34.60
2018-03-25T18:15:34.264Z,36.60
2018-03-25T18:18:02.705Z,37.10
2018-03-25T18:20:32.589Z,36.80
2018-03-25T18:23:03.535Z,37.50
2018-03-25T18:25:36.838Z,38.70
2018-03-25T18:28:11.453Z,40.60
2018-03-25T18:30:41.823Z,40.60
2018-03-25T18:33:12.487Z,42.20
2018-03-25T18:38:15.063Z,44.80
2018-03-25T18:40:47.093Z,46.00
2018-03-25T18:43:15.304Z,46.80
2018-03-25T18:45:43.473Z,47.20
2018-03-25T18:48:13.024Z,48.20
2018-03-25T18:50:41.258Z,47.70
2018-03-25T18:53:10.889Z,48.20
2018-03-25T18:55:40.122Z,49.10
2018-03-25T18:58:08.294Z,49.90
2018-03-25T19:00:38.598Z,50.70
2018-03-25T19:03:08.156Z,50.30
2018-03-25T19:05:36.486Z,50.90
2018-03-25T19:08:06.949Z,51.60
2018-03-25T19:10:37.421Z,51.80
2018-03-25T19:13:08.878Z,51.50
2018-03-25T19:15:37.053Z,51.10
2018-03-25T19:18:10.131Z,51.20
2018-03-25T19:20:39.104Z,51.20
2018-03-25T19:23:14.326Z,51.20
2018-03-25T19:25:42.526Z,52.00
2018-03-25T19:28:11.948Z,52.60
2018-03-25T19:30:45.029Z,52.40
2018-03-25T19:33:13.445Z,52.90
2018-03-25T19:35:41.722Z,52.80
2018-03-25T19:38:10.132Z,54.10
2018-03-25T19:40:38.942Z,53.40
2018-03-25T19:49:22.279Z,55.40
2018-03-25T19:51:50.638Z,56.30
2018-03-25T19:54:18.814Z,58.70
2018-03-25T19:56:46.975Z,59.70
2018-03-25T19:59:16.546Z,59.60
2018-03-25T20:01:45.564Z,60.10
2018-03-25T20:04:14.483Z,61.80
2018-03-25T20:06:43.023Z,61.80
2018-03-25T20:09:11.234Z,62.80
2018-03-25T20:11:39.461Z,61.50
2018-03-25T20:14:09.095Z,59.30
2018-03-25T20:16:38.056Z,57.50
2018-03-25T20:19:06.242Z,57.40
2018-03-25T20:21:35.624Z,57.20
2018-03-25T20:24:03.775Z,58.50
2018-03-25T20:26:34.055Z,58.20
2018-03-25T20:29:02.206Z,58.30
2018-03-25T20:31:30.375Z,58.10
2018-03-25T20:34:00.219Z,58.10
2018-03-25T20:36:29.228Z,60.00
2018-03-25T20:38:57.397Z,60.00
2018-03-25T20:41:30.209Z,58.70
2018-03-25T20:43:58.496Z,59.10
2018-03-25T20:46:26.682Z,58.40
2018-03-25T20:48:56.061Z,58.70
2018-03-25T20:51:24.234Z,58.60
2018-03-25T20:53:53.661Z,58.40
2018-03-25T20:56:21.828Z,58.20
2018-03-25T20:58:50.033Z,58.60
2018-03-25T21:01:18.548Z,57.90
2018-03-25T21:03:46.783Z,57.20
2018-03-25T21:06:15.032Z,57.40
2018-03-25T21:08:43.304Z,57.60
2018-03-25T21:11:11.916Z,58.20
2018-03-25T21:13:40.321Z,58.70
2018-03-25T21:16:10.716Z,59.50
2018-03-25T21:18:38.898Z,59.50
2018-03-25T21:21:07.129Z,58.30
2018-03-25T21:23:38.072Z,58.30
2018-03-25T21:26:06.242Z,58.00
2018-03-25T21:28:35.508Z,58.80
2018-03-25T21:31:04.497Z,60.20
2018-03-25T21:33:34.516Z,61.30
2018-03-25T21:36:03.113Z,61.30
2018-03-25T21:38:32.017Z,64.40
2018-03-25T21:41:01.809Z,64.40
2018-03-25T21:43:30.846Z,65.70
2018-03-25T21:45:59.026Z,65.70
2018-03-25T21:48:27.194Z,65.90
2018-03-25T21:50:56.191Z,65.70
2018-03-25T21:53:25.385Z,66.60
2018-03-25T21:55:54.255Z,66.90
2018-03-25T21:58:22.454Z,66.70
2018-03-25T22:00:50.667Z,67.70
2018-03-25T22:03:21.613Z,68.40
2018-03-25T22:05:50.745Z,69.70
2018-03-25T22:08:18.943Z,69.80
2018-03-25T22:10:50.458Z,69.90
2018-03-25T22:17:00.892Z,70.20
2018-03-25T22:19:30.603Z,71.00
2018-03-25T22:22:02.559Z,68.70
2018-03-25T22:24:30.850Z,67.40
2018-03-25T22:27:00.655Z,66.80
2018-03-25T22:29:28.806Z,66.40
2018-03-25T22:32:05.393Z,66.30
2018-03-25T22:34:33.854Z,68.90
2018-03-25T22:37:03.127Z,70.20
2018-03-25T22:39:31.978Z,68.60
2018-03-25T22:42:05.406Z,68.80
2018-03-25T22:44:33.607Z,65.90
2018-03-25T22:47:01.773Z,65.20
2018-03-25T22:49:30.699Z,66.90
2018-03-25T22:51:58.963Z,67.20
2018-03-25T22:54:27.264Z,69.00
2018-03-25T22:56:55.666Z,68.70
2018-03-25T22:59:23.839Z,68.80
2018-03-25T23:01:52.202Z,69.00
2018-03-25T23:04:22.079Z,69.80
2018-03-25T23:06:50.267Z,70.40
2018-03-25T23:09:18.426Z,70.70
2018-03-25T23:11:49.982Z,67.80
2018-03-25T23:14:18.587Z,68.40
2018-03-25T23:16:47.902Z,68.40
2018-03-25T23:19:16.077Z,68.70
2018-03-25T23:21:44.472Z,68.60
2018-03-25T23:24:12.737Z,69.20
2018-03-25T23:26:40.959Z,70.10
2018-03-25T23:29:09.120Z,70.30
2018-03-25T23:31:37.559Z,70.30
2018-03-25T23:34:06.660Z,71.10
2018-03-25T23:36:34.837Z,72.30
2018-03-25T23:39:04.001Z,72.10
2018-03-25T23:41:32.191Z,71.40
2018-03-25T23:44:00.346Z,70.50
2018-03-25T23:46:28.722Z,71.10
2018-03-25T23:48:56.903Z,71.90
2018-03-25T23:51:25.084Z,71.90
2018-03-25T23:53:57.834Z,70.10
2018-03-25T23:56:26.030Z,70.20
2018-03-25T23:58:57.146Z,72.70
